createdAt,value
2019-03-08T00:00:35.141Z,48.03
2019-03-08T00:03:03.709Z,47.99
2019-03-08T00:05:32.080Z,47.54
2019-03-08T00:08:00.481Z,48.06
2019-03-08T00:10:28.923Z,47.93
2019-03-08T00:12:57.305Z,48.11
2019-03-08T00:15:25.683Z,48.13
2019-03-08T00:17:54.781Z,48.38
2019-03-08T00:20:23.161Z,48.10
2019-03-08T00:22:51.539Z,48.12
2019-03-08T00:25:19.984Z,48.06
2019-03-08T00:27:48.382Z,48.20
2019-03-08T00:30:16.886Z,48.23
2019-03-08T00:32:45.522Z,48.13
2019-03-08T00:35:13.962Z,48.22
2019-03-08T00:37:42.349Z,48.03
2019-03-08T00:40:12.857Z,48.15
2019-03-08T00:42:41.259Z,48.17
2019-03-08T00:45:16.954Z,48.08
2019-03-08T00:47:45.342Z,48.23
2019-03-08T00:50:14.148Z,48.27
2019-03-08T00:52:42.542Z,48.23
2019-03-08T00:55:11.946Z,48.24
2019-03-08T00:57:40.388Z,48.15
2019-03-08T01:00:15.582Z,48.28
2019-03-08T01:02:43.959Z,48.24
2019-03-08T01:05:13.087Z,48.28
2019-03-08T01:07:41.530Z,48.26
2019-03-08T01:10:12.982Z,48.31
2019-03-08T01:12:41.358Z,48.13
2019-03-08T01:15:12.783Z,48.29
2019-03-08T01:17:41.166Z,48.41
2019-03-08T01:20:12.090Z,48.17
2019-03-08T01:22:40.464Z,48.08
2019-03-08T01:25:09.184Z,48.20
2019-03-08T01:27:38.691Z,48.10
2019-03-08T01:30:10.128Z,48.17
2019-03-08T01:32:38.565Z,48.23
2019-03-08T01:35:07.688Z,48.12
2019-03-08T01:37:36.130Z,48.24
2019-03-08T01:40:07.658Z,48.31
2019-03-08T01:42:36.029Z,48.39
2019-03-08T01:45:07.051Z,48.45
2019-03-08T01:47:35.423Z,48.34
2019-03-08T01:50:05.970Z,48.38
2019-03-08T01:52:34.325Z,48.23
2019-03-08T01:55:02.959Z,48.31
2019-03-08T01:57:31.329Z,48.34
2019-03-08T01:59:59.713Z,48.26
2019-03-08T02:02:28.152Z,48.38
2019-03-08T02:04:56.705Z,48.29
2019-03-08T02:07:25.315Z,48.25
2019-03-08T02:09:53.982Z,48.30
2019-03-08T02:12:22.352Z,48.28
2019-03-08T02:14:50.740Z,48.52
2019-03-08T02:17:19.119Z,48.38
2019-03-08T02:19:47.503Z,48.46
2019-03-08T02:22:15.882Z,48.33
2019-03-08T02:24:44.346Z,48.42
2019-03-08T02:27:12.709Z,48.29
2019-03-08T02:29:41.087Z,48.32
2019-03-08T02:32:09.454Z,48.43
2019-03-08T02:34:37.830Z,48.40
2019-03-08T02:37:06.195Z,48.36
2019-03-08T02:39:34.918Z,48.47
2019-03-08T02:42:03.284Z,48.41
2019-03-08T02:44:31.646Z,48.42
2019-03-08T02:47:00.018Z,48.31
2019-03-08T02:49:28.388Z,48.27
2019-03-08T02:51:56.763Z,48.29
2019-03-08T02:54:25.305Z,48.38
2019-03-08T02:56:53.681Z,48.46
2019-03-08T02:59:22.045Z,48.35
2019-03-08T03:01:50.422Z,48.31
2019-03-08T03:04:18.786Z,48.30
2019-03-08T03:06:47.169Z,48.39
2019-03-08T03:09:15.710Z,48.37
2019-03-08T03:11:44.088Z,48.43
2019-03-08T03:14:12.479Z,48.47
2019-03-08T03:16:40.827Z,48.41
2019-03-08T03:19:09.263Z,48.37
2019-03-08T03:21:37.637Z,48.43
2019-03-08T03:24:06.074Z,48.41
2019-03-08T03:26:34.491Z,48.38
2019-03-08T03:29:02.821Z,48.33
2019-03-08T03:31:31.206Z,48.54
2019-03-08T03:33:59.570Z,48.49
2019-03-08T03:36:27.945Z,48.49
2019-03-08T03:38:56.824Z,48.50
2019-03-08T03:41:25.197Z,48.36
2019-03-08T03:43:53.561Z,48.49
2019-03-08T03:46:21.933Z,48.54
2019-03-08T03:48:50.303Z,48.61
2019-03-08T03:51:18.673Z,48.38
2019-03-08T03:53:47.213Z,48.50
2019-03-08T03:56:15.592Z,48.52
2019-03-08T03:58:43.958Z,48.58
2019-03-08T04:01:23.033Z,48.51
2019-03-08T04:03:51.398Z,48.48
2019-03-08T04:06:20.150Z,48.46
2019-03-08T04:08:48.516Z,48.50
2019-03-08T04:11:16.893Z,48.42
2019-03-08T04:13:45.256Z,48.22
2019-03-08T04:16:13.646Z,48.40
2019-03-08T04:18:42.011Z,48.47
2019-03-08T04:21:10.557Z,48.44
2019-03-08T04:23:39.896Z,48.40
2019-03-08T04:26:08.260Z,48.50
2019-03-08T04:28:36.631Z,48.64
2019-03-08T04:31:05.014Z,48.81
2019-03-08T04:33:33.390Z,48.84
2019-03-08T04:36:01.756Z,49.17
2019-03-08T04:38:30.129Z,49.16
2019-03-08T04:40:58.493Z,49.41
2019-03-08T04:43:26.869Z,49.35
2019-03-08T04:45:55.236Z,49.42
2019-03-08T04:48:23.612Z,49.57
2019-03-08T04:50:51.972Z,49.65
2019-03-08T04:53:20.347Z,49.72
2019-03-08T04:55:48.712Z,49.77
2019-03-08T04:58:17.093Z,49.75
2019-03-08T05:00:45.474Z,49.90
2019-03-08T05:03:13.849Z,49.88
2019-03-08T05:05:42.217Z,50.07
2019-03-08T05:08:10.595Z,49.91
2019-03-08T05:10:40.017Z,49.85
2019-03-08T05:13:08.393Z,49.88
2019-03-08T05:15:36.848Z,49.92
2019-03-08T05:18:05.296Z,49.91
2019-03-08T05:20:33.659Z,49.87
2019-03-08T05:23:02.040Z,49.83
2019-03-08T05:25:30.414Z,49.93
2019-03-08T05:27:58.781Z,49.92
2019-03-08T05:30:27.153Z,49.71
2019-03-08T05:32:55.532Z,49.59
2019-03-08T05:35:23.892Z,49.62
2019-03-08T05:37:52.458Z,49.61
2019-03-08T05:40:20.823Z,49.72
2019-03-08T05:42:49.221Z,49.69
2019-03-08T05:45:17.605Z,49.65
2019-03-08T05:47:45.969Z,49.61
2019-03-08T05:50:14.788Z,49.74
2019-03-08T05:52:43.436Z,49.68
2019-03-08T05:55:12.562Z,49.59
2019-03-08T05:57:40.932Z,49.64
2019-03-08T06:00:16.250Z,49.59
2019-03-08T06:02:44.624Z,49.61
2019-03-08T06:05:13.074Z,49.42
2019-03-08T06:07:41.443Z,49.48
2019-03-08T06:10:30.956Z,49.46
2019-03-08T06:13:00.456Z,49.43
2019-03-08T06:15:28.892Z,49.49
2019-03-08T06:17:57.431Z,49.57
2019-03-08T06:20:25.816Z,49.59
2019-03-08T06:22:55.173Z,49.62
2019-03-08T06:25:23.552Z,49.63
2019-03-08T06:27:51.919Z,49.61
2019-03-08T06:30:20.291Z,49.64
2019-03-08T06:32:48.934Z,49.67
2019-03-08T06:35:17.310Z,49.65
2019-03-08T06:37:45.677Z,49.71
2019-03-08T06:40:14.590Z,49.71
2019-03-08T06:42:42.955Z,49.71
2019-03-08T06:45:17.987Z,49.70
2019-03-08T06:47:46.631Z,49.71
2019-03-08T06:50:16.571Z,49.75
2019-03-08T06:52:44.939Z,49.77
2019-03-08T06:55:17.589Z,49.83
2019-03-08T06:57:45.949Z,49.86
2019-03-08T07:00:36.995Z,49.81
2019-03-08T07:03:07.232Z,49.84
2019-03-08T07:05:35.781Z,49.83
2019-03-08T07:08:04.519Z,49.82
2019-03-08T07:10:32.894Z,49.78
2019-03-08T07:13:03.476Z,49.77
2019-03-08T07:15:31.545Z,49.78
2019-03-08T07:17:59.930Z,49.96
2019-03-08T07:20:46.400Z,49.84
2019-03-08T07:23:28.133Z,49.79
2019-03-08T07:26:02.825Z,49.73
2019-03-08T07:28:48.896Z,49.88
2019-03-08T07:31:21.832Z,49.84
2019-03-08T07:34:00.619Z,50.24
2019-03-08T07:39:40.296Z,49.96
2019-03-08T07:42:10.386Z,49.63
2019-03-08T07:44:58.525Z,49.29
2019-03-08T07:47:37.555Z,48.73
2019-03-08T07:50:24.925Z,48.65
2019-03-08T07:53:06.654Z,48.58
2019-03-08T07:55:42.549Z,48.63
2019-03-08T07:58:21.998Z,48.59
2019-03-08T08:00:54.856Z,48.50
2019-03-08T08:03:24.867Z,48.41
2019-03-08T08:06:00.824Z,48.36
2019-03-08T08:08:33.506Z,48.39
2019-03-08T08:11:09.546Z,48.27
2019-03-08T08:13:39.556Z,48.30
2019-03-08T08:16:12.257Z,48.28
2019-03-08T08:18:48.817Z,48.30
2019-03-08T08:21:24.903Z,48.37
2019-03-08T08:24:00.401Z,48.42
2019-03-08T08:26:36.491Z,48.43
2019-03-08T08:29:12.303Z,48.56
2019-03-08T08:31:43.214Z,48.69
2019-03-08T08:34:18.953Z,48.71
2019-03-08T08:37:03.804Z,48.86
2019-03-08T08:39:42.475Z,48.85
2019-03-08T08:42:18.939Z,48.80
2019-03-08T08:44:53.080Z,48.86
2019-03-08T08:47:26.136Z,48.78
2019-03-08T08:50:01.736Z,48.74
2019-03-08T08:52:37.307Z,48.64
2019-03-08T08:55:27.564Z,48.32
2019-03-08T08:58:13.730Z,48.19
2019-03-08T09:00:52.945Z,48.36
2019-03-08T09:03:34.882Z,48.28
2019-03-08T09:06:05.261Z,48.38
2019-03-08T09:08:35.283Z,48.42
2019-03-08T09:11:17.414Z,48.36
2019-03-08T09:13:47.429Z,48.30
2019-03-08T09:16:32.893Z,48.13
2019-03-08T09:19:02.905Z,48.20
2019-03-08T09:21:48.973Z,48.42
2019-03-08T09:24:19.061Z,48.42
2019-03-08T09:27:07.060Z,48.41
2019-03-08T09:29:41.172Z,48.21
2019-03-08T09:32:08.811Z,48.27
2019-03-08T09:34:44.421Z,48.01
2019-03-08T09:37:14.429Z,47.96
2019-03-08T09:39:44.448Z,47.71
2019-03-08T09:42:30.876Z,47.82
2019-03-08T09:45:01.084Z,47.85
2019-03-08T09:47:47.067Z,47.91
2019-03-08T09:50:19.492Z,47.91
2019-03-08T09:55:43.816Z,47.31
2019-03-08T09:58:16.250Z,47.31
2019-03-08T10:00:49.229Z,47.42
2019-03-08T10:03:21.819Z,47.63
2019-03-08T10:05:57.989Z,47.39
2019-03-08T10:08:28.005Z,47.42
2019-03-08T10:11:00.670Z,47.18
2019-03-08T10:13:31.005Z,47.15
2019-03-08T10:16:01.013Z,47.29
2019-03-08T10:18:42.936Z,47.24
2019-03-08T10:21:22.537Z,47.56
2019-03-08T10:23:52.756Z,47.80
2019-03-08T10:26:25.417Z,47.87
2019-03-08T10:28:58.341Z,47.97
2019-03-08T10:31:31.078Z,47.99
2019-03-08T10:34:13.108Z,48.05
2019-03-08T10:36:48.831Z,48.05
2019-03-08T10:39:21.743Z,48.12
2019-03-08T10:41:54.359Z,48.14
2019-03-08T10:44:24.651Z,48.15
2019-03-08T10:46:54.737Z,48.30
2019-03-08T10:49:24.898Z,48.14
2019-03-08T10:52:17.656Z,48.13
2019-03-08T10:54:48.878Z,48.13
2019-03-08T10:57:27.837Z,48.29
2019-03-08T11:00:14.138Z,48.19
2019-03-08T11:03:00.885Z,48.26
2019-03-08T11:05:42.579Z,48.12
2019-03-08T11:08:15.357Z,48.16
2019-03-08T11:11:06.282Z,48.09
2019-03-08T11:13:42.827Z,48.13
2019-03-08T11:16:24.967Z,48.09
2019-03-08T11:19:08.547Z,48.14
2019-03-08T11:21:41.334Z,48.38
2019-03-08T11:24:11.353Z,48.07
2019-03-08T11:27:04.740Z,48.31
2019-03-08T11:29:42.377Z,48.47
2019-03-08T11:32:23.313Z,48.38
2019-03-08T11:35:01.734Z,48.47
2019-03-08T11:37:31.736Z,48.61
2019-03-08T11:40:17.931Z,48.88
2019-03-08T11:42:50.851Z,50.32
2019-03-08T11:45:20.862Z,52.17
2019-03-08T11:47:56.652Z,53.39
2019-03-08T11:50:29.617Z,54.37
2019-03-08T11:53:16.130Z,55.32
2019-03-08T11:55:48.790Z,55.30
2019-03-08T11:58:27.371Z,54.42
2019-03-08T12:01:00.496Z,53.68
2019-03-08T12:03:33.010Z,53.62
2019-03-08T12:06:05.679Z,54.01
2019-03-08T12:08:48.069Z,53.85
2019-03-08T12:11:33.424Z,53.61
2019-03-08T12:14:06.323Z,53.41
2019-03-08T12:16:52.764Z,53.31
2019-03-08T12:19:39.236Z,53.26
2019-03-08T12:22:14.871Z,53.21
2019-03-08T12:24:54.108Z,53.23
2019-03-08T12:27:24.136Z,53.07
2019-03-08T12:29:54.142Z,53.12
2019-03-08T12:32:42.422Z,52.92
2019-03-08T12:35:15.625Z,52.93
2019-03-08T12:37:51.382Z,52.78
2019-03-08T12:40:30.788Z,52.67
2019-03-08T12:43:07.558Z,52.48
2019-03-08T12:45:38.666Z,52.39
2019-03-08T12:48:24.832Z,52.37
2019-03-08T12:50:57.548Z,52.43
2019-03-08T12:53:27.635Z,52.33
2019-03-08T12:56:09.760Z,52.07
2019-03-08T12:58:55.082Z,51.55
2019-03-08T13:01:25.231Z,51.36
2019-03-08T13:03:55.237Z,51.24
2019-03-08T13:06:37.262Z,51.26
2019-03-08T13:09:26.352Z,51.10
2019-03-08T13:11:54.726Z,51.04
2019-03-08T13:14:23.168Z,50.83
2019-03-08T13:16:51.612Z,50.73
2019-03-08T13:19:19.982Z,50.93
2019-03-08T13:21:48.618Z,50.78
2019-03-08T13:24:17.129Z,50.74
2019-03-08T13:26:45.497Z,50.66
2019-03-08T13:29:13.877Z,50.50
2019-03-08T13:31:42.245Z,50.38
2019-03-08T13:34:10.693Z,50.30
2019-03-08T13:36:39.188Z,49.98
2019-03-08T13:39:08.205Z,49.98
2019-03-08T13:41:36.567Z,49.94
2019-03-08T13:44:05.256Z,49.99
2019-03-08T13:46:33.621Z,50.00
2019-03-08T13:49:01.996Z,49.86
2019-03-08T13:51:30.456Z,50.07
2019-03-08T13:53:58.912Z,49.75
2019-03-08T13:56:27.345Z,49.74
2019-03-08T13:58:55.740Z,49.60
2019-03-08T14:01:24.108Z,49.59
2019-03-08T14:03:52.490Z,49.65
2019-03-08T14:06:20.877Z,49.59
2019-03-08T14:08:49.428Z,49.59
2019-03-08T14:11:17.794Z,49.48
2019-03-08T14:13:46.171Z,49.52
2019-03-08T14:16:14.551Z,49.61
2019-03-08T14:18:42.928Z,49.90
2019-03-08T14:21:11.429Z,50.77
2019-03-08T14:23:39.846Z,51.35
2019-03-08T14:26:08.216Z,51.65
2019-03-08T14:28:36.590Z,51.82
2019-03-08T14:31:15.323Z,52.36
2019-03-08T14:33:44.293Z,52.82
2019-03-08T14:36:12.854Z,53.67
2019-03-08T14:38:41.228Z,53.59
2019-03-08T14:41:14.514Z,53.42
2019-03-08T14:43:49.008Z,53.08
2019-03-08T14:46:35.358Z,53.04
2019-03-08T14:49:03.735Z,52.97
2019-03-08T14:51:32.096Z,53.06
2019-03-08T14:54:00.552Z,53.28
2019-03-08T14:56:31.775Z,53.19
2019-03-08T14:58:59.516Z,53.41
2019-03-08T15:01:27.888Z,53.44
2019-03-08T15:03:56.791Z,53.34
2019-03-08T15:06:28.080Z,53.33
2019-03-08T15:08:56.339Z,53.28
2019-03-08T15:11:24.959Z,53.30
2019-03-08T15:13:57.953Z,53.16
2019-03-08T15:16:23.816Z,52.82
2019-03-08T15:18:53.086Z,52.53
2019-03-08T15:21:21.465Z,52.46
2019-03-08T15:23:50.935Z,52.23
2019-03-08T15:26:20.229Z,52.08
2019-03-08T15:28:48.861Z,51.92
2019-03-08T15:31:17.253Z,51.54
2019-03-08T15:33:45.629Z,51.33
2019-03-08T15:36:14.884Z,51.29
2019-03-08T15:38:43.531Z,51.02
2019-03-08T15:41:12.051Z,50.93
2019-03-08T15:43:40.489Z,50.54
2019-03-08T15:46:08.929Z,50.43
2019-03-08T15:48:37.371Z,50.94
2019-03-08T15:51:05.844Z,51.28
2019-03-08T15:53:34.191Z,51.42
2019-03-08T15:56:02.696Z,51.24
2019-03-08T15:58:31.134Z,51.25
2019-03-08T16:00:59.578Z,51.50
2019-03-08T16:03:30.101Z,51.67
2019-03-08T16:05:58.065Z,51.68
2019-03-08T16:08:26.440Z,51.56
2019-03-08T16:10:54.802Z,51.34
2019-03-08T16:13:23.239Z,50.28
2019-03-08T16:15:51.614Z,48.63
2019-03-08T16:18:19.985Z,47.48
2019-03-08T16:20:48.496Z,46.19
2019-03-08T16:23:16.944Z,44.99
2019-03-08T16:25:47.949Z,43.80
2019-03-08T16:28:15.415Z,44.15
2019-03-08T16:30:47.463Z,45.12
2019-03-08T16:33:19.878Z,45.12
2019-03-08T16:36:06.339Z,45.51
2019-03-08T16:38:45.188Z,45.68
2019-03-08T16:41:29.744Z,45.90
2019-03-08T16:44:11.046Z,46.28
2019-03-08T16:46:40.826Z,46.43
2019-03-08T16:49:10.697Z,46.60
2019-03-08T16:51:56.869Z,46.60
2019-03-08T16:54:26.839Z,46.70
2019-03-08T16:56:59.846Z,46.80
2019-03-08T16:59:39.037Z,46.95
2019-03-08T17:02:09.180Z,46.94
2019-03-08T17:04:39.197Z,46.94
2019-03-08T17:07:21.420Z,47.01
2019-03-08T17:09:57.346Z,46.96
2019-03-08T17:12:33.082Z,46.96
2019-03-08T17:15:19.750Z,46.99
2019-03-08T17:18:01.919Z,46.96
2019-03-08T17:20:32.000Z,46.83
2019-03-08T17:23:02.136Z,46.99
2019-03-08T17:25:32.144Z,46.86
2019-03-08T17:28:02.234Z,46.79
2019-03-08T17:30:35.005Z,46.76
2019-03-08T17:33:11.320Z,46.89
2019-03-08T17:35:44.423Z,46.92
2019-03-08T17:38:17.689Z,46.99
2019-03-08T17:41:03.742Z,47.09
2019-03-08T17:43:36.205Z,47.09
2019-03-08T17:46:06.358Z,47.09
2019-03-08T17:48:36.379Z,47.22
2019-03-08T17:51:06.474Z,47.17
2019-03-08T17:53:39.490Z,47.22
2019-03-08T17:56:12.258Z,47.20
2019-03-08T17:58:44.954Z,47.20
2019-03-08T18:01:14.968Z,47.21
2019-03-08T18:03:48.079Z,48.32
2019-03-08T18:06:34.343Z,49.15
2019-03-08T18:09:22.769Z,49.23
2019-03-08T18:11:55.463Z,49.63
2019-03-08T18:14:37.401Z,49.41
2019-03-08T18:17:13.285Z,49.50
2019-03-08T18:22:21.267Z,49.45
2019-03-08T18:25:07.718Z,49.20
2019-03-08T18:27:37.718Z,49.31
2019-03-08T18:30:11.159Z,49.30
2019-03-08T18:32:44.164Z,49.36
2019-03-08T18:35:23.179Z,49.54
2019-03-08T18:38:09.887Z,49.48
2019-03-08T18:40:39.912Z,49.47
2019-03-08T18:43:25.012Z,49.50
2019-03-08T18:45:55.031Z,49.61
2019-03-08T18:48:25.034Z,50.05
2019-03-08T18:51:04.285Z,50.18
2019-03-08T18:53:34.396Z,50.08
2019-03-08T18:56:04.478Z,50.03
2019-03-08T18:58:34.579Z,49.95
2019-03-08T19:01:07.711Z,49.86
2019-03-08T19:06:30.588Z,49.77
2019-03-08T19:09:00.754Z,50.05
2019-03-08T19:11:30.764Z,50.17
2019-03-08T19:14:16.753Z,49.93
2019-03-08T19:16:52.844Z,50.83
2019-03-08T19:19:38.746Z,51.19
2019-03-08T19:22:26.399Z,50.83
2019-03-08T19:24:52.560Z,50.97
2019-03-08T19:27:23.550Z,51.03
2019-03-08T19:30:09.731Z,51.08
2019-03-08T19:32:42.533Z,51.43
2019-03-08T19:35:30.499Z,51.08
2019-03-08T19:38:15.310Z,51.09
2019-03-08T19:40:51.356Z,51.13
2019-03-08T19:43:27.110Z,51.09
2019-03-08T19:45:59.603Z,51.10
2019-03-08T19:48:41.274Z,51.36
2019-03-08T19:51:11.853Z,51.50
2019-03-08T19:53:48.096Z,51.46
2019-03-08T19:56:21.467Z,51.29
2019-03-08T19:58:51.577Z,50.70
2019-03-08T20:01:27.410Z,50.65
2019-03-08T20:07:05.185Z,50.50
2019-03-08T20:09:37.695Z,50.27
2019-03-08T20:14:52.109Z,50.38
2019-03-08T20:17:38.552Z,50.34
2019-03-08T20:20:20.022Z,50.47
2019-03-08T20:23:06.347Z,50.48
2019-03-08T20:25:36.398Z,50.64
2019-03-08T20:28:06.412Z,51.21
2019-03-08T20:30:39.288Z,51.38
2019-03-08T20:33:15.321Z,51.55
2019-03-08T20:35:45.342Z,51.72
2019-03-08T20:41:20.970Z,51.84
2019-03-08T20:43:51.039Z,51.77
2019-03-08T20:46:32.950Z,51.80
2019-03-08T20:49:01.394Z,51.84
2019-03-08T20:51:29.784Z,50.97
2019-03-08T20:53:58.162Z,51.37
2019-03-08T20:56:26.702Z,51.66
2019-03-08T20:58:55.118Z,51.59
2019-03-08T21:01:23.777Z,51.71
2019-03-08T21:03:52.148Z,51.89
2019-03-08T21:06:20.528Z,51.38
2019-03-08T21:08:48.894Z,51.28
2019-03-08T21:11:17.417Z,50.89
2019-03-08T21:13:45.786Z,50.92
2019-03-08T21:16:14.186Z,50.70
2019-03-08T21:18:42.569Z,50.60
2019-03-08T21:21:10.971Z,50.41
2019-03-08T21:23:39.352Z,50.46
2019-03-08T21:26:07.713Z,50.52
2019-03-08T21:28:36.101Z,50.64
2019-03-08T21:31:04.625Z,49.98
2019-03-08T21:33:33.017Z,50.18
2019-03-08T21:36:01.388Z,50.56
2019-03-08T21:38:29.770Z,50.29
2019-03-08T21:40:58.142Z,50.96
2019-03-08T21:43:26.697Z,50.06
2019-03-08T21:45:55.073Z,49.78
2019-03-08T21:48:23.449Z,50.04
2019-03-08T21:50:51.992Z,50.07
2019-03-08T21:53:20.375Z,49.83
2019-03-08T21:55:48.918Z,49.73
2019-03-08T21:58:17.950Z,49.53
2019-03-08T22:00:46.348Z,49.51
2019-03-08T22:03:14.888Z,49.46
2019-03-08T22:05:43.260Z,49.62
2019-03-08T22:08:17.216Z,49.58
2019-03-08T22:10:43.365Z,49.57
2019-03-08T22:13:11.822Z,49.48
2019-03-08T22:15:40.269Z,49.51
2019-03-08T22:18:08.651Z,49.53
2019-03-08T22:20:37.021Z,49.49
2019-03-08T22:23:06.010Z,49.56
2019-03-08T22:25:34.391Z,49.51
2019-03-08T22:28:02.838Z,49.62
2019-03-08T22:30:31.203Z,49.65
2019-03-08T22:32:59.584Z,49.51
2019-03-08T22:35:27.963Z,49.63
2019-03-08T22:37:56.343Z,49.59
2019-03-08T22:40:24.714Z,49.64
2019-03-08T22:42:53.081Z,49.60
2019-03-08T22:45:21.469Z,49.63
2019-03-08T22:47:49.839Z,49.56
2019-03-08T22:50:18.390Z,49.67
2019-03-08T22:52:46.758Z,49.58
2019-03-08T22:55:16.071Z,49.61
2019-03-08T22:57:44.437Z,49.61
2019-03-08T23:00:59.353Z,49.53
2019-03-08T23:03:28.864Z,49.65
2019-03-08T23:05:57.306Z,49.52
2019-03-08T23:08:25.680Z,49.56
2019-03-08T23:10:54.058Z,49.66
2019-03-08T23:13:23.086Z,49.53
2019-03-08T23:15:51.462Z,49.58
2019-03-08T23:18:19.830Z,49.66
2019-03-08T23:20:48.371Z,49.58
2019-03-08T23:23:16.817Z,49.59
2019-03-08T23:25:45.214Z,49.54
2019-03-08T23:28:31.594Z,49.37
2019-03-08T23:31:01.615Z,49.38
2019-03-08T23:33:29.988Z,49.45
2019-03-08T23:35:58.362Z,49.56
2019-03-08T23:38:26.728Z,49.51
2019-03-08T23:40:55.109Z,49.52
2019-03-08T23:43:23.478Z,49.42
2019-03-08T23:45:52.305Z,49.33
2019-03-08T23:48:20.669Z,49.46
2019-03-08T23:50:49.517Z,49.42
2019-03-08T23:53:18.574Z,49.52
2019-03-08T23:55:46.950Z,49.30
2019-03-08T23:58:15.335Z,49.43
